Airfield :
LOGIN :

Register | Disclaimer

   EN    FR    IT 

 










Legend :    VFR   Marginal VFR   IFR   Intensive IFR   Very Intensive IFR
Visi :
Ceiling :
>= 8 km
>= 3000ft
5 to 8 km
1000 to 3000 ft
1500m to 5 km
500 to 1000 ft
800 to 1500m
200 to 500 ft
< 800m
< 200 ft
Symbols :   Thunderstorms  Fog  Heavy snow  Heavy precipitations  Wind > 20 kt
SIGMETs :     Misc.  Thunderstorms  Icing  Turbulence  Mountain Waves  Volcanic Ashes







- Airport Elevation : 52 ft
- IATA code : RNN


EKRN - Bornholm Ronne

CURRENT METAR :
  • 261150Z AUTO 03012KT 9999NDV SCT012/// BKN082/// BKN160/// 18/15 Q1003

EXPIRED METARs :
  • 261120Z AUTO 03013KT 9999NDV -SHRA SCT011/// SCT024/// BKN080/// 17/15 Q1003
  • 261050Z AUTO 03014KT 9999NDV -SHRA BKN011/// BKN080/// 17/15 Q1003
  • 261020Z AUTO 03014KT 9999NDV -DZ SCT010/// OVC039/// 17/15 Q1003
  • 260950Z AUTO 03013KT 9999NDV -RA BKN009/// OVC062/// 17/15 Q1003
  • 260920Z AUTO 03013KT 9999NDV -RA BKN009/// 16/15 Q1003

TAF TAF EKRN
Valid from the 26 at 12:00 until the 26 at 21:00 UTC


261121Z 2612/2621 02018KT 9999 -RA BKN030
TEMPO 2612/2613 RA BKN010
No reported NOTAMs for that airfield.



MET'MAP, your aeronautical weather chart ! - Copyright ORBIFLY December 2007 - Disclaimer

ORBIFLY MET'MAP TEAM :

Programming & Development : Alexandra Zaïnal
Concept & Development : Baudouin d'Aumeries
Co-Development & Prog : Marc-Olivier Méhu
Technical & hardware support : Manuel Goepfert

Contact : metmap@orbifly.com




SOURCES & CREDITS :

   NOAA